sensor_id;sensor_type;location;lat;lon;timestamp;temperature;humidity
47961;DHT22;33721;48.852;9.936;2023-03-21T00:01:53;8.70;99.90
47961;DHT22;33721;48.852;9.936;2023-03-21T00:04:20;8.70;99.90
47961;DHT22;33721;48.852;9.936;2023-03-21T00:06:46;8.70;99.90
47961;DHT22;33721;48.852;9.936;2023-03-21T00:09:11;8.70;99.90
47961;DHT22;33721;48.852;9.936;2023-03-21T00:11:37;8.70;99.90
47961;DHT22;33721;48.852;9.936;2023-03-21T00:14:03;8.70;99.90
47961;DHT22;33721;48.852;9.936;2023-03-21T00:16:33;8.60;99.90
47961;DHT22;33721;48.852;9.936;2023-03-21T00:19:00;8.70;99.90
47961;DHT22;33721;48.852;9.936;2023-03-21T00:21:31;8.60;99.90
47961;DHT22;33721;48.852;9.936;2023-03-21T00:23:59;8.50;99.90
47961;DHT22;33721;48.852;9.936;2023-03-21T00:26:25;8.30;99.90
47961;DHT22;33721;48.852;9.936;2023-03-21T00:28:51;8.30;99.90
47961;DHT22;33721;48.852;9.936;2023-03-21T00:31:17;8.30;99.90
47961;DHT22;33721;48.852;9.936;2023-03-21T00:33:43;8.20;99.90
47961;DHT22;33721;48.852;9.936;2023-03-21T00:36:09;8.20;99.90
47961;DHT22;33721;48.852;9.936;2023-03-21T00:38:36;8.10;99.90
47961;DHT22;33721;48.852;9.936;2023-03-21T00:41:05;8.10;99.90
47961;DHT22;33721;48.852;9.936;2023-03-21T00:43:31;8.10;99.90
47961;DHT22;33721;48.852;9.936;2023-03-21T00:45:58;8.10;99.90
47961;DHT22;33721;48.852;9.936;2023-03-21T00:48:24;8.10;99.90
47961;DHT22;33721;48.852;9.936;2023-03-21T00:50:51;8.10;99.90
47961;DHT22;33721;48.852;9.936;2023-03-21T00:53:19;8.10;99.90
47961;DHT22;33721;48.852;9.936;2023-03-21T00:55:45;8.10;99.90
47961;DHT22;33721;48.852;9.936;2023-03-21T00:58:11;8.10;99.90
47961;DHT22;33721;48.852;9.936;2023-03-21T01:00:37;8.10;99.90
47961;DHT22;33721;48.852;9.936;2023-03-21T01:03:04;8.10;99.90
47961;DHT22;33721;48.852;9.936;2023-03-21T01:05:38;8.00;99.90
47961;DHT22;33721;48.852;9.936;2023-03-21T01:08:23;8.00;99.90
47961;DHT22;33721;48.852;9.936;2023-03-21T01:10:50;8.10;99.90
47961;DHT22;33721;48.852;9.936;2023-03-21T01:13:18;8.10;99.90
47961;DHT22;33721;48.852;9.936;2023-03-21T01:15:46;8.10;99.90
47961;DHT22;33721;48.852;9.936;2023-03-21T01:18:14;8.10;99.90
47961;DHT22;33721;48.852;9.936;2023-03-21T01:20:41;8.10;99.90
47961;DHT22;33721;48.852;9.936;2023-03-21T01:23:08;8.00;99.90
47961;DHT22;33721;48.852;9.936;2023-03-21T01:25:34;8.10;99.90
47961;DHT22;33721;48.852;9.936;2023-03-21T01:28:00;8.10;99.90
47961;DHT22;33721;48.852;9.936;2023-03-21T01:30:25;8.10;99.90
47961;DHT22;33721;48.852;9.936;2023-03-21T01:32:51;8.00;99.90
47961;DHT22;33721;48.852;9.936;2023-03-21T01:35:17;8.00;99.90
47961;DHT22;33721;48.852;9.936;2023-03-21T01:37:43;8.00;99.90
47961;DHT22;33721;48.852;9.936;2023-03-21T01:40:21;8.00;99.90
47961;DHT22;33721;48.852;9.936;2023-03-21T01:42:47;7.90;99.90
47961;DHT22;33721;48.852;9.936;2023-03-21T01:48:18;8.00;99.90
47961;DHT22;33721;48.852;9.936;2023-03-21T01:50:44;8.00;99.90
47961;DHT22;33721;48.852;9.936;2023-03-21T01:53:11;8.00;99.90
47961;DHT22;33721;48.852;9.936;2023-03-21T01:55:38;8.00;99.90
47961;DHT22;33721;48.852;9.936;2023-03-21T01:58:05;8.00;99.90
47961;DHT22;33721;48.852;9.936;2023-03-21T02:00:33;7.90;99.90
47961;DHT22;33721;48.852;9.936;2023-03-21T02:03:04;7.90;99.90
47961;DHT22;33721;48.852;9.936;2023-03-21T02:05:59;7.90;99.90
47961;DHT22;33721;48.852;9.936;2023-03-21T02:08:25;7.90;99.90
47961;DHT22;33721;48.852;9.936;2023-03-21T02:10:51;7.90;99.90
47961;DHT22;33721;48.852;9.936;2023-03-21T02:13:17;7.90;99.90
47961;DHT22;33721;48.852;9.936;2023-03-21T02:16:11;8.00;99.90
47961;DHT22;33721;48.852;9.936;2023-03-21T02:21:49;8.00;99.90
47961;DHT22;33721;48.852;9.936;2023-03-21T02:25:07;8.00;99.90
47961;DHT22;33721;48.852;9.936;2023-03-21T02:27:28;8.00;99.90
47961;DHT22;33721;48.852;9.936;2023-03-21T02:35:48;8.00;99.90
47961;DHT22;33721;48.852;9.936;2023-03-21T02:38:40;8.00;99.90
47961;DHT22;33721;48.852;9.936;2023-03-21T02:43:46;7.90;99.90
47961;DHT22;33721;48.852;9.936;2023-03-21T02:46:43;7.90;99.90
47961;DHT22;33721;48.852;9.936;2023-03-21T02:49:24;7.90;99.90
47961;DHT22;33721;48.852;9.936;2023-03-21T02:51:52;7.90;99.90
47961;DHT22;33721;48.852;9.936;2023-03-21T02:54:20;7.90;99.90
47961;DHT22;33721;48.852;9.936;2023-03-21T02:56:49;8.00;99.90
47961;DHT22;33721;48.852;9.936;2023-03-21T02:59:16;8.00;99.90
47961;DHT22;33721;48.852;9.936;2023-03-21T03:01:43;8.00;99.90
47961;DHT22;33721;48.852;9.936;2023-03-21T03:04:20;8.00;99.90
47961;DHT22;33721;48.852;9.936;2023-03-21T03:07:01;8.00;99.90
47961;DHT22;33721;48.852;9.936;2023-03-21T03:14:58;7.90;99.90
47961;DHT22;33721;48.852;9.936;2023-03-21T03:17:34;7.90;99.90
47961;DHT22;33721;48.852;9.936;2023-03-21T03:23:51;7.90;99.90
47961;DHT22;33721;48.852;9.936;2023-03-21T03:28:25;7.90;99.90
47961;DHT22;33721;48.852;9.936;2023-03-21T03:30:53;7.90;99.90
47961;DHT22;33721;48.852;9.936;2023-03-21T03:33:21;7.90;99.90
47961;DHT22;33721;48.852;9.936;2023-03-21T03:35:49;7.90;99.90
47961;DHT22;33721;48.852;9.936;2023-03-21T03:38:16;7.90;99.90
47961;DHT22;33721;48.852;9.936;2023-03-21T03:40:47;7.80;99.90
47961;DHT22;33721;48.852;9.936;2023-03-21T03:43:18;7.80;99.90
47961;DHT22;33721;48.852;9.936;2023-03-21T03:45:52;7.80;99.90
47961;DHT22;33721;48.852;9.936;2023-03-21T03:48:33;7.80;99.90
47961;DHT22;33721;48.852;9.936;2023-03-21T03:51:09;7.80;99.90
47961;DHT22;33721;48.852;9.936;2023-03-21T03:53:37;7.80;99.90
47961;DHT22;33721;48.852;9.936;2023-03-21T03:56:06;7.80;99.90
47961;DHT22;33721;48.852;9.936;2023-03-21T03:58:34;7.80;99.90
47961;DHT22;33721;48.852;9.936;2023-03-21T04:01:02;7.80;99.90
47961;DHT22;33721;48.852;9.936;2023-03-21T04:03:28;7.80;99.90
47961;DHT22;33721;48.852;9.936;2023-03-21T04:05:54;7.80;99.90
47961;DHT22;33721;48.852;9.936;2023-03-21T04:08:19;7.80;99.90
47961;DHT22;33721;48.852;9.936;2023-03-21T04:10:48;7.80;99.90
47961;DHT22;33721;48.852;9.936;2023-03-21T04:13:13;7.80;99.90
47961;DHT22;33721;48.852;9.936;2023-03-21T04:15:39;7.80;99.90
47961;DHT22;33721;48.852;9.936;2023-03-21T04:18:05;7.80;99.90
47961;DHT22;33721;48.852;9.936;2023-03-21T04:20:31;7.80;99.90
47961;DHT22;33721;48.852;9.936;2023-03-21T04:22:56;7.80;99.90
47961;DHT22;33721;48.852;9.936;2023-03-21T04:25:22;7.80;99.90
47961;DHT22;33721;48.852;9.936;2023-03-21T04:27:48;7.80;99.90
47961;DHT22;33721;48.852;9.936;2023-03-21T04:30:14;7.80;99.90
47961;DHT22;33721;48.852;9.936;2023-03-21T04:32:40;7.70;99.90
47961;DHT22;33721;48.852;9.936;2023-03-21T04:35:08;7.70;99.90
47961;DHT22;33721;48.852;9.936;2023-03-21T04:37:35;7.70;99.90
47961;DHT22;33721;48.852;9.936;2023-03-21T04:40:02;7.70;99.90
47961;DHT22;33721;48.852;9.936;2023-03-21T04:42:33;7.80;99.90
47961;DHT22;33721;48.852;9.936;2023-03-21T04:44:59;7.80;99.90
47961;DHT22;33721;48.852;9.936;2023-03-21T04:47:26;7.70;99.90
47961;DHT22;33721;48.852;9.936;2023-03-21T04:49:51;7.70;99.90
47961;DHT22;33721;48.852;9.936;2023-03-21T04:52:18;7.70;99.90
47961;DHT22;33721;48.852;9.936;2023-03-21T04:54:44;7.60;99.90
47961;DHT22;33721;48.852;9.936;2023-03-21T04:57:09;7.70;99.90
47961;DHT22;33721;48.852;9.936;2023-03-21T04:59:35;7.70;99.90
47961;DHT22;33721;48.852;9.936;2023-03-21T05:02:01;7.70;99.90
47961;DHT22;33721;48.852;9.936;2023-03-21T05:04:27;7.70;99.90
47961;DHT22;33721;48.852;9.936;2023-03-21T05:06:54;7.70;99.90
47961;DHT22;33721;48.852;9.936;2023-03-21T05:09:20;7.70;99.90
47961;DHT22;33721;48.852;9.936;2023-03-21T05:11:46;7.70;99.90
47961;DHT22;33721;48.852;9.936;2023-03-21T05:14:19;7.60;99.90
47961;DHT22;33721;48.852;9.936;2023-03-21T05:16:45;7.50;99.90
47961;DHT22;33721;48.852;9.936;2023-03-21T05:19:18;7.40;99.90
47961;DHT22;33721;48.852;9.936;2023-03-21T05:21:45;7.50;99.90
47961;DHT22;33721;48.852;9.936;2023-03-21T05:24:17;7.50;99.90
47961;DHT22;33721;48.852;9.936;2023-03-21T05:26:44;7.50;99.90
47961;DHT22;33721;48.852;9.936;2023-03-21T05:29:16;7.50;99.90
47961;DHT22;33721;48.852;9.936;2023-03-21T05:31:43;7.50;99.90
47961;DHT22;33721;48.852;9.936;2023-03-21T05:34:09;7.50;99.90
47961;DHT22;33721;48.852;9.936;2023-03-21T05:36:35;7.50;99.90
47961;DHT22;33721;48.852;9.936;2023-03-21T05:39:01;7.50;99.90
47961;DHT22;33721;48.852;9.936;2023-03-21T05:41:27;7.50;99.90
47961;DHT22;33721;48.852;9.936;2023-03-21T05:43:52;7.50;99.90
47961;DHT22;33721;48.852;9.936;2023-03-21T05:46:18;7.60;99.90
47961;DHT22;33721;48.852;9.936;2023-03-21T05:48:43;7.60;99.90
47961;DHT22;33721;48.852;9.936;2023-03-21T05:51:09;7.60;99.90
47961;DHT22;33721;48.852;9.936;2023-03-21T05:53:35;7.50;99.90
47961;DHT22;33721;48.852;9.936;2023-03-21T05:56:01;7.50;99.90
47961;DHT22;33721;48.852;9.936;2023-03-21T05:58:27;7.50;99.90
47961;DHT22;33721;48.852;9.936;2023-03-21T06:00:52;7.50;99.90
47961;DHT22;33721;48.852;9.936;2023-03-21T06:03:18;7.50;99.90
47961;DHT22;33721;48.852;9.936;2023-03-21T06:05:44;7.60;99.90
47961;DHT22;33721;48.852;9.936;2023-03-21T06:08:09;7.60;99.90
47961;DHT22;33721;48.852;9.936;2023-03-21T06:10:35;7.70;99.90
47961;DHT22;33721;48.852;9.936;2023-03-21T06:13:00;7.70;99.90
47961;DHT22;33721;48.852;9.936;2023-03-21T06:15:26;7.70;99.90
47961;DHT22;33721;48.852;9.936;2023-03-21T06:17:52;7.70;99.90
47961;DHT22;33721;48.852;9.936;2023-03-21T06:20:18;7.70;99.90
47961;DHT22;33721;48.852;9.936;2023-03-21T06:22:43;7.70;99.90
47961;DHT22;33721;48.852;9.936;2023-03-21T06:25:09;7.80;99.90
47961;DHT22;33721;48.852;9.936;2023-03-21T06:27:35;7.80;99.90
47961;DHT22;33721;48.852;9.936;2023-03-21T06:30:01;7.70;99.90
47961;DHT22;33721;48.852;9.936;2023-03-21T06:32:31;7.80;99.90
47961;DHT22;33721;48.852;9.936;2023-03-21T06:34:57;7.80;99.90
47961;DHT22;33721;48.852;9.936;2023-03-21T06:37:22;7.90;99.90
47961;DHT22;33721;48.852;9.936;2023-03-21T06:39:48;7.90;99.90
47961;DHT22;33721;48.852;9.936;2023-03-21T06:42:14;7.90;99.90
47961;DHT22;33721;48.852;9.936;2023-03-21T06:44:39;7.90;99.90
47961;DHT22;33721;48.852;9.936;2023-03-21T06:47:05;7.90;99.90
47961;DHT22;33721;48.852;9.936;2023-03-21T06:49:31;7.90;99.90
47961;DHT22;33721;48.852;9.936;2023-03-21T06:51:57;7.90;99.90
47961;DHT22;33721;48.852;9.936;2023-03-21T06:54:23;7.90;99.90
47961;DHT22;33721;48.852;9.936;2023-03-21T06:56:48;7.90;99.90
47961;DHT22;33721;48.852;9.936;2023-03-21T06:59:14;8.00;99.90
47961;DHT22;33721;48.852;9.936;2023-03-21T07:01:40;8.00;99.90
47961;DHT22;33721;48.852;9.936;2023-03-21T07:04:07;8.10;99.90
47961;DHT22;33721;48.852;9.936;2023-03-21T07:06:33;8.00;99.90
47961;DHT22;33721;48.852;9.936;2023-03-21T07:08:59;8.00;99.90
47961;DHT22;33721;48.852;9.936;2023-03-21T07:11:26;7.90;99.90
47961;DHT22;33721;48.852;9.936;2023-03-21T07:13:52;7.90;99.90
47961;DHT22;33721;48.852;9.936;2023-03-21T07:16:18;8.00;99.90
47961;DHT22;33721;48.852;9.936;2023-03-21T07:18:46;8.10;99.90
47961;DHT22;33721;48.852;9.936;2023-03-21T07:21:12;8.10;99.90
47961;DHT22;33721;48.852;9.936;2023-03-21T07:23:38;8.30;99.90
47961;DHT22;33721;48.852;9.936;2023-03-21T07:26:05;8.40;99.90
47961;DHT22;33721;48.852;9.936;2023-03-21T07:28:31;8.60;99.90
47961;DHT22;33721;48.852;9.936;2023-03-21T07:31:02;8.80;99.90
47961;DHT22;33721;48.852;9.936;2023-03-21T07:33:29;8.80;99.90
47961;DHT22;33721;48.852;9.936;2023-03-21T07:35:56;8.90;99.90
47961;DHT22;33721;48.852;9.936;2023-03-21T07:38:25;9.00;99.90
47961;DHT22;33721;48.852;9.936;2023-03-21T07:40:52;9.20;99.90
47961;DHT22;33721;48.852;9.936;2023-03-21T07:43:18;9.30;99.90
47961;DHT22;33721;48.852;9.936;2023-03-21T07:45:43;9.50;99.90
47961;DHT22;33721;48.852;9.936;2023-03-21T07:48:10;9.60;99.90
47961;DHT22;33721;48.852;9.936;2023-03-21T07:50:38;9.80;99.90
47961;DHT22;33721;48.852;9.936;2023-03-21T07:53:03;9.80;99.90
47961;DHT22;33721;48.852;9.936;2023-03-21T07:55:29;10.00;99.90
47961;DHT22;33721;48.852;9.936;2023-03-21T07:57:59;10.00;99.90
47961;DHT22;33721;48.852;9.936;2023-03-21T08:00:25;10.10;99.90
47961;DHT22;33721;48.852;9.936;2023-03-21T08:02:53;10.10;99.90
47961;DHT22;33721;48.852;9.936;2023-03-21T08:05:24;10.20;99.90
47961;DHT22;33721;48.852;9.936;2023-03-21T08:07:51;10.20;99.90
47961;DHT22;33721;48.852;9.936;2023-03-21T08:10:17;10.30;99.90
47961;DHT22;33721;48.852;9.936;2023-03-21T08:12:43;10.30;99.90
47961;DHT22;33721;48.852;9.936;2023-03-21T08:15:10;10.30;99.90
47961;DHT22;33721;48.852;9.936;2023-03-21T08:17:37;10.40;99.90
47961;DHT22;33721;48.852;9.936;2023-03-21T08:20:06;10.50;99.90
47961;DHT22;33721;48.852;9.936;2023-03-21T08:22:33;10.60;99.90
47961;DHT22;33721;48.852;9.936;2023-03-21T08:25:00;10.60;99.90
47961;DHT22;33721;48.852;9.936;2023-03-21T08:27:26;10.70;99.90
47961;DHT22;33721;48.852;9.936;2023-03-21T08:29:52;10.70;99.90
47961;DHT22;33721;48.852;9.936;2023-03-21T08:32:18;10.70;99.90
47961;DHT22;33721;48.852;9.936;2023-03-21T08:34:44;10.90;99.90
47961;DHT22;33721;48.852;9.936;2023-03-21T08:37:10;10.90;99.90
47961;DHT22;33721;48.852;9.936;2023-03-21T08:39:35;11.00;99.90
47961;DHT22;33721;48.852;9.936;2023-03-21T08:42:01;10.90;99.90
47961;DHT22;33721;48.852;9.936;2023-03-21T08:44:26;10.90;99.90
47961;DHT22;33721;48.852;9.936;2023-03-21T08:46:52;11.00;99.90
47961;DHT22;33721;48.852;9.936;2023-03-21T08:49:18;11.10;99.90
47961;DHT22;33721;48.852;9.936;2023-03-21T08:51:43;11.10;99.90
47961;DHT22;33721;48.852;9.936;2023-03-21T08:54:18;11.20;99.90
47961;DHT22;33721;48.852;9.936;2023-03-21T08:56:45;11.20;99.90
47961;DHT22;33721;48.852;9.936;2023-03-21T08:59:10;11.10;99.90
47961;DHT22;33721;48.852;9.936;2023-03-21T09:01:36;11.20;99.90
47961;DHT22;33721;48.852;9.936;2023-03-21T09:04:02;11.20;99.90
47961;DHT22;33721;48.852;9.936;2023-03-21T09:06:28;11.20;99.90
47961;DHT22;33721;48.852;9.936;2023-03-21T09:08:54;11.30;99.90
47961;DHT22;33721;48.852;9.936;2023-03-21T09:11:21;11.20;99.90
47961;DHT22;33721;48.852;9.936;2023-03-21T09:13:47;11.40;99.90
47961;DHT22;33721;48.852;9.936;2023-03-21T09:16:12;11.70;99.90
47961;DHT22;33721;48.852;9.936;2023-03-21T09:18:38;11.90;99.90
47961;DHT22;33721;48.852;9.936;2023-03-21T09:21:10;11.90;99.90
47961;DHT22;33721;48.852;9.936;2023-03-21T09:23:38;12.00;99.90
47961;DHT22;33721;48.852;9.936;2023-03-21T09:26:04;12.00;99.90
47961;DHT22;33721;48.852;9.936;2023-03-21T09:28:31;12.10;99.90
47961;DHT22;33721;48.852;9.936;2023-03-21T09:30:58;12.20;99.90
47961;DHT22;33721;48.852;9.936;2023-03-21T09:33:25;12.30;99.90
47961;DHT22;33721;48.852;9.936;2023-03-21T09:35:53;12.40;99.90
47961;DHT22;33721;48.852;9.936;2023-03-21T09:38:19;12.40;99.90
47961;DHT22;33721;48.852;9.936;2023-03-21T09:41:02;12.50;99.90
47961;DHT22;33721;48.852;9.936;2023-03-21T09:51:35;13.20;99.90
47961;DHT22;33721;48.852;9.936;2023-03-21T09:54:06;13.50;99.90
47961;DHT22;33721;48.852;9.936;2023-03-21T09:56:35;13.60;99.90
47961;DHT22;33721;48.852;9.936;2023-03-21T09:59:02;13.80;99.90
47961;DHT22;33721;48.852;9.936;2023-03-21T10:01:31;13.70;99.90
47961;DHT22;33721;48.852;9.936;2023-03-21T10:04:09;13.70;99.90
47961;DHT22;33721;48.852;9.936;2023-03-21T10:06:38;14.10;99.90
47961;DHT22;33721;48.852;9.936;2023-03-21T10:09:12;14.20;99.90
47961;DHT22;33721;48.852;9.936;2023-03-21T10:11:49;13.70;99.90
47961;DHT22;33721;48.852;9.936;2023-03-21T10:14:34;13.30;99.90
47961;DHT22;33721;48.852;9.936;2023-03-21T10:19:29;13.00;99.90
47961;DHT22;33721;48.852;9.936;2023-03-21T10:21:55;12.90;99.90
47961;DHT22;33721;48.852;9.936;2023-03-21T10:24:24;12.90;99.90
47961;DHT22;33721;48.852;9.936;2023-03-21T10:26:52;13.00;99.90
47961;DHT22;33721;48.852;9.936;2023-03-21T10:29:20;13.30;99.90
47961;DHT22;33721;48.852;9.936;2023-03-21T10:31:48;13.60;99.90
47961;DHT22;33721;48.852;9.936;2023-03-21T10:34:15;13.80;99.90
47961;DHT22;33721;48.852;9.936;2023-03-21T10:36:43;14.10;99.90
47961;DHT22;33721;48.852;9.936;2023-03-21T10:42:00;14.30;99.90
47961;DHT22;33721;48.852;9.936;2023-03-21T10:44:31;14.50;99.90
47961;DHT22;33721;48.852;9.936;2023-03-21T10:47:03;14.80;99.90
47961;DHT22;33721;48.852;9.936;2023-03-21T10:49:30;14.90;99.90
47961;DHT22;33721;48.852;9.936;2023-03-21T10:51:57;14.80;99.90
47961;DHT22;33721;48.852;9.936;2023-03-21T10:54:31;14.90;99.90
47961;DHT22;33721;48.852;9.936;2023-03-21T10:57:07;14.60;99.90
47961;DHT22;33721;48.852;9.936;2023-03-21T10:59:45;14.50;99.90
47961;DHT22;33721;48.852;9.936;2023-03-21T11:05:32;14.80;99.90
47961;DHT22;33721;48.852;9.936;2023-03-21T11:08:02;14.60;99.90
47961;DHT22;33721;48.852;9.936;2023-03-21T11:10:31;14.70;99.90
47961;DHT22;33721;48.852;9.936;2023-03-21T11:13:03;15.00;99.90
47961;DHT22;33721;48.852;9.936;2023-03-21T11:18:14;15.10;99.90
47961;DHT22;33721;48.852;9.936;2023-03-21T11:20:48;14.50;99.90
47961;DHT22;33721;48.852;9.936;2023-03-21T11:23:14;14.30;99.90
47961;DHT22;33721;48.852;9.936;2023-03-21T11:25:41;14.40;99.90
47961;DHT22;33721;48.852;9.936;2023-03-21T11:28:16;14.70;99.90
47961;DHT22;33721;48.852;9.936;2023-03-21T11:30:53;14.80;99.90
47961;DHT22;33721;48.852;9.936;2023-03-21T11:33:22;15.10;99.90
47961;DHT22;33721;48.852;9.936;2023-03-21T11:36:25;15.60;99.90
47961;DHT22;33721;48.852;9.936;2023-03-21T11:38:55;15.50;99.90
47961;DHT22;33721;48.852;9.936;2023-03-21T11:41:23;15.80;99.90
47961;DHT22;33721;48.852;9.936;2023-03-21T11:43:51;16.30;99.90
47961;DHT22;33721;48.852;9.936;2023-03-21T11:46:22;16.10;99.90
47961;DHT22;33721;48.852;9.936;2023-03-21T11:48:48;15.70;99.90
47961;DHT22;33721;48.852;9.936;2023-03-21T11:54:20;16.00;99.90
47961;DHT22;33721;48.852;9.936;2023-03-21T11:56:51;15.80;99.90
47961;DHT22;33721;48.852;9.936;2023-03-21T12:05:10;16.50;99.90
47961;DHT22;33721;48.852;9.936;2023-03-21T12:08:08;16.30;99.90
47961;DHT22;33721;48.852;9.936;2023-03-21T12:10:43;15.80;99.90
47961;DHT22;33721;48.852;9.936;2023-03-21T12:16:09;15.40;99.90
47961;DHT22;33721;48.852;9.936;2023-03-21T12:24:25;15.40;99.90
47961;DHT22;33721;48.852;9.936;2023-03-21T12:27:04;15.40;99.90
47961;DHT22;33721;48.852;9.936;2023-03-21T12:29:59;15.30;99.90
47961;DHT22;33721;48.852;9.936;2023-03-21T12:32:58;15.30;99.90
47961;DHT22;33721;48.852;9.936;2023-03-21T12:38:15;15.40;99.90
47961;DHT22;33721;48.852;9.936;2023-03-21T12:40:43;15.60;99.90
47961;DHT22;33721;48.852;9.936;2023-03-21T12:45:49;15.40;99.90
47961;DHT22;33721;48.852;9.936;2023-03-21T12:51:10;15.20;99.90
47961;DHT22;33721;48.852;9.936;2023-03-21T12:53:59;15.20;99.90
47961;DHT22;33721;48.852;9.936;2023-03-21T12:56:40;15.20;99.90
47961;DHT22;33721;48.852;9.936;2023-03-21T13:01:59;15.10;99.90
47961;DHT22;33721;48.852;9.936;2023-03-21T13:07:17;15.00;99.90
47961;DHT22;33721;48.852;9.936;2023-03-21T13:09:45;14.90;99.90
47961;DHT22;33721;48.852;9.936;2023-03-21T13:18:25;15.10;99.90
47961;DHT22;33721;48.852;9.936;2023-03-21T13:20:55;15.10;99.90
47961;DHT22;33721;48.852;9.936;2023-03-21T13:23:23;15.00;99.90
47961;DHT22;33721;48.852;9.936;2023-03-21T13:25:52;14.80;99.90
47961;DHT22;33721;48.852;9.936;2023-03-21T13:28:26;14.80;99.90
47961;DHT22;33721;48.852;9.936;2023-03-21T13:30:53;14.90;99.90
47961;DHT22;33721;48.852;9.936;2023-03-21T13:33:39;15.00;99.90
47961;DHT22;33721;48.852;9.936;2023-03-21T13:36:13;15.00;99.90
47961;DHT22;33721;48.852;9.936;2023-03-21T13:38:39;15.10;99.90
47961;DHT22;33721;48.852;9.936;2023-03-21T13:41:06;15.20;99.90
47961;DHT22;33721;48.852;9.936;2023-03-21T13:48:58;15.30;99.90
47961;DHT22;33721;48.852;9.936;2023-03-21T13:51:51;15.40;99.90
47961;DHT22;33721;48.852;9.936;2023-03-21T13:56:56;15.60;99.90
47961;DHT22;33721;48.852;9.936;2023-03-21T14:02:23;15.40;99.90
47961;DHT22;33721;48.852;9.936;2023-03-21T14:05:01;15.20;99.90
47961;DHT22;33721;48.852;9.936;2023-03-21T14:07:48;15.10;99.90
47961;DHT22;33721;48.852;9.936;2023-03-21T14:10:27;15.10;99.90
47961;DHT22;33721;48.852;9.936;2023-03-21T14:12:54;15.10;99.90
47961;DHT22;33721;48.852;9.936;2023-03-21T14:15:25;15.10;99.90
47961;DHT22;33721;48.852;9.936;2023-03-21T14:17:56;15.00;99.90
47961;DHT22;33721;48.852;9.936;2023-03-21T14:20:32;14.80;99.90
47961;DHT22;33721;48.852;9.936;2023-03-21T14:22:58;14.70;99.90
47961;DHT22;33721;48.852;9.936;2023-03-21T14:25:32;14.60;99.90
47961;DHT22;33721;48.852;9.936;2023-03-21T14:28:02;14.60;99.90
47961;DHT22;33721;48.852;9.936;2023-03-21T14:30:36;14.60;99.90
47961;DHT22;33721;48.852;9.936;2023-03-21T14:33:39;14.70;99.90
47961;DHT22;33721;48.852;9.936;2023-03-21T14:36:11;14.70;99.90
47961;DHT22;33721;48.852;9.936;2023-03-21T14:38:39;14.60;99.90
47961;DHT22;33721;48.852;9.936;2023-03-21T14:41:20;14.60;99.90
47961;DHT22;33721;48.852;9.936;2023-03-21T14:44:16;14.60;99.90
47961;DHT22;33721;48.852;9.936;2023-03-21T14:46:46;14.50;99.90
47961;DHT22;33721;48.852;9.936;2023-03-21T14:49:21;14.50;99.90
47961;DHT22;33721;48.852;9.936;2023-03-21T14:51:50;14.60;99.90
47961;DHT22;33721;48.852;9.936;2023-03-21T14:54:17;14.70;99.90
47961;DHT22;33721;48.852;9.936;2023-03-21T14:57:06;14.80;99.90
47961;DHT22;33721;48.852;9.936;2023-03-21T14:59:35;14.80;99.90
47961;DHT22;33721;48.852;9.936;2023-03-21T15:02:36;14.90;99.90
47961;DHT22;33721;48.852;9.936;2023-03-21T15:05:17;15.00;99.90
47961;DHT22;33721;48.852;9.936;2023-03-21T15:08:01;15.00;99.90
47961;DHT22;33721;48.852;9.936;2023-03-21T15:10:29;15.00;99.90
47961;DHT22;33721;48.852;9.936;2023-03-21T15:12:58;15.00;99.90
47961;DHT22;33721;48.852;9.936;2023-03-21T15:15:26;15.00;99.90
47961;DHT22;33721;48.852;9.936;2023-03-21T15:17:52;15.00;99.90
47961;DHT22;33721;48.852;9.936;2023-03-21T15:20:23;15.00;99.90
47961;DHT22;33721;48.852;9.936;2023-03-21T15:22:55;15.10;99.90
47961;DHT22;33721;48.852;9.936;2023-03-21T15:25:25;15.10;99.90
47961;DHT22;33721;48.852;9.936;2023-03-21T15:27:53;15.20;99.90
47961;DHT22;33721;48.852;9.936;2023-03-21T15:30:26;15.30;99.90
47961;DHT22;33721;48.852;9.936;2023-03-21T15:32:56;15.20;99.90
47961;DHT22;33721;48.852;9.936;2023-03-21T15:35:30;15.20;99.90
47961;DHT22;33721;48.852;9.936;2023-03-21T15:37:57;15.10;99.90
47961;DHT22;33721;48.852;9.936;2023-03-21T15:40:26;15.10;99.90
47961;DHT22;33721;48.852;9.936;2023-03-21T15:43:16;15.10;99.90
47961;DHT22;33721;48.852;9.936;2023-03-21T15:46:00;15.00;99.90
47961;DHT22;33721;48.852;9.936;2023-03-21T15:48:27;15.00;99.90
47961;DHT22;33721;48.852;9.936;2023-03-21T15:51:03;15.00;99.90
47961;DHT22;33721;48.852;9.936;2023-03-21T15:53:35;15.00;99.90
47961;DHT22;33721;48.852;9.936;2023-03-21T15:56:02;15.00;99.90
47961;DHT22;33721;48.852;9.936;2023-03-21T15:58:40;15.10;99.90
47961;DHT22;33721;48.852;9.936;2023-03-21T16:01:22;15.10;99.90
47961;DHT22;33721;48.852;9.936;2023-03-21T16:04:01;15.10;99.90
47961;DHT22;33721;48.852;9.936;2023-03-21T16:06:32;15.10;99.90
47961;DHT22;33721;48.852;9.936;2023-03-21T16:09:17;15.10;99.90
47961;DHT22;33721;48.852;9.936;2023-03-21T16:11:55;15.10;99.90
47961;DHT22;33721;48.852;9.936;2023-03-21T16:14:22;15.10;99.90
47961;DHT22;33721;48.852;9.936;2023-03-21T16:16:49;15.10;99.90
47961;DHT22;33721;48.852;9.936;2023-03-21T16:19:15;15.10;99.90
47961;DHT22;33721;48.852;9.936;2023-03-21T16:21:41;15.10;99.90
47961;DHT22;33721;48.852;9.936;2023-03-21T16:24:09;15.00;99.90
47961;DHT22;33721;48.852;9.936;2023-03-21T16:26:43;15.00;99.90
47961;DHT22;33721;48.852;9.936;2023-03-21T16:29:13;15.00;99.90
47961;DHT22;33721;48.852;9.936;2023-03-21T16:31:39;15.00;99.90
47961;DHT22;33721;48.852;9.936;2023-03-21T16:34:05;14.90;99.90
47961;DHT22;33721;48.852;9.936;2023-03-21T16:36:33;14.90;99.90
47961;DHT22;33721;48.852;9.936;2023-03-21T16:39:01;14.80;99.90
47961;DHT22;33721;48.852;9.936;2023-03-21T16:41:29;14.80;99.90
47961;DHT22;33721;48.852;9.936;2023-03-21T16:43:55;14.70;99.90
47961;DHT22;33721;48.852;9.936;2023-03-21T16:46:23;14.60;99.90
47961;DHT22;33721;48.852;9.936;2023-03-21T16:48:51;14.50;99.90
47961;DHT22;33721;48.852;9.936;2023-03-21T16:51:19;14.40;99.90
47961;DHT22;33721;48.852;9.936;2023-03-21T16:53:51;14.30;99.90
47961;DHT22;33721;48.852;9.936;2023-03-21T16:56:23;14.20;99.90
47961;DHT22;33721;48.852;9.936;2023-03-21T16:58:54;14.10;99.90
47961;DHT22;33721;48.852;9.936;2023-03-21T17:01:21;14.00;99.90
47961;DHT22;33721;48.852;9.936;2023-03-21T17:03:51;13.90;99.90
47961;DHT22;33721;48.852;9.936;2023-03-21T17:06:21;13.90;99.90
47961;DHT22;33721;48.852;9.936;2023-03-21T17:08:49;13.80;99.90
47961;DHT22;33721;48.852;9.936;2023-03-21T17:11:17;13.70;99.90
47961;DHT22;33721;48.852;9.936;2023-03-21T17:13:53;13.60;99.90
47961;DHT22;33721;48.852;9.936;2023-03-21T17:16:22;13.50;99.90
47961;DHT22;33721;48.852;9.936;2023-03-21T17:18:48;13.50;99.90
47961;DHT22;33721;48.852;9.936;2023-03-21T17:21:20;13.40;99.90
47961;DHT22;33721;48.852;9.936;2023-03-21T17:23:46;13.40;99.90
47961;DHT22;33721;48.852;9.936;2023-03-21T17:26:26;13.30;99.90
47961;DHT22;33721;48.852;9.936;2023-03-21T17:28:53;13.20;99.90